createdAt,value
2022-08-22T00:02:24.574Z,15.31
2022-08-22T00:02:58.997Z,15.24
2022-08-22T00:03:04.188Z,17.66
2022-08-22T00:03:10.386Z,15.99
2022-08-22T00:05:00.138Z,15.22
2022-08-22T00:07:39.637Z,15.16
2022-08-22T00:10:22.815Z,15.12
2022-08-22T00:13:00.284Z,15.08
2022-08-22T00:15:43.071Z,15.00
2022-08-22T00:18:18.347Z,15.03
2022-08-22T00:20:49.292Z,15.12
2022-08-22T00:23:22.678Z,15.22
2022-08-22T00:25:58.244Z,15.33
2022-08-22T00:28:30.009Z,15.35
2022-08-22T00:31:02.816Z,15.29
2022-08-22T00:33:41.813Z,15.33
2022-08-22T00:36:23.209Z,15.36
2022-08-22T00:38:59.205Z,15.32
2022-08-22T00:41:44.459Z,15.19
2022-08-22T00:44:32.264Z,15.13
2022-08-22T00:47:18.439Z,15.10
2022-08-22T00:50:14.903Z,15.05
2022-08-22T00:53:03.750Z,15.06
2022-08-22T00:56:04.983Z,15.03
2022-08-22T00:58:54.830Z,14.97
2022-08-22T01:01:30.152Z,14.98
2022-08-22T01:04:24.707Z,15.00
2022-08-22T01:07:08.688Z,15.03
2022-08-22T01:09:48.257Z,15.01
2022-08-22T01:12:29.424Z,14.92
2022-08-22T01:14:58.252Z,15.02
2022-08-22T01:18:05.022Z,14.94
2022-08-22T01:21:25.742Z,14.90
2022-08-22T01:24:26.375Z,14.85
2022-08-22T01:27:27.493Z,14.76
2022-08-22T01:30:27.309Z,14.74
2022-08-22T01:33:23.244Z,14.75
2022-08-22T01:36:22.860Z,14.76
2022-08-22T01:39:40.453Z,14.77
2022-08-22T01:42:34.638Z,14.79
2022-08-22T01:45:33.006Z,14.77
2022-08-22T01:48:08.177Z,14.77
2022-08-22T01:50:38.100Z,14.75
2022-08-22T01:53:10.145Z,14.71
2022-08-22T01:55:43.595Z,14.67
2022-08-22T01:58:17.439Z,14.62
2022-08-22T02:01:00.917Z,14.67
2022-08-22T02:03:33.577Z,14.64
2022-08-22T02:06:14.677Z,14.63
2022-08-22T02:08:50.816Z,14.63
2022-08-22T02:11:40.247Z,14.67
2022-08-22T02:14:17.024Z,14.64
2022-08-22T02:16:47.532Z,14.61
2022-08-22T02:19:29.536Z,14.58
2022-08-22T02:22:02.229Z,14.52
2022-08-22T02:24:47.916Z,14.53
2022-08-22T02:27:25.674Z,14.53
2022-08-22T02:30:04.053Z,14.53
2022-08-22T02:32:37.641Z,14.54
2022-08-22T02:35:10.457Z,14.50
2022-08-22T02:37:43.254Z,14.46
2022-08-22T02:40:16.640Z,14.48
2022-08-22T02:42:49.423Z,14.43
2022-08-22T02:45:25.046Z,14.42
2022-08-22T02:47:59.697Z,14.37
2022-08-22T02:50:37.869Z,14.30
2022-08-22T02:53:13.697Z,14.24
2022-08-22T02:55:50.836Z,14.21
2022-08-22T02:58:26.866Z,14.11
2022-08-22T03:01:17.766Z,14.11
2022-08-22T03:03:47.091Z,14.05
2022-08-22T03:06:28.649Z,13.98
2022-08-22T03:09:05.571Z,13.89
2022-08-22T03:11:39.564Z,13.86
2022-08-22T03:14:12.081Z,13.88
2022-08-22T03:16:48.250Z,13.78
2022-08-22T03:19:20.287Z,13.84
2022-08-22T03:21:55.712Z,13.77
2022-08-22T03:24:31.426Z,13.79
2022-08-22T03:27:06.051Z,13.81
2022-08-22T03:29:37.503Z,13.86
2022-08-22T03:32:12.568Z,13.86
2022-08-22T03:34:55.205Z,13.89
2022-08-22T03:37:32.495Z,13.82
2022-08-22T03:40:03.813Z,13.81
2022-08-22T03:43:18.717Z,13.85
2022-08-22T03:46:22.671Z,13.79
2022-08-22T03:49:15.796Z,13.84
2022-08-22T03:52:12.369Z,13.86
2022-08-22T03:55:06.668Z,13.78
2022-08-22T03:58:27.958Z,13.90
2022-08-22T04:01:20.158Z,13.96
2022-08-22T04:04:13.366Z,14.00
2022-08-22T04:07:32.283Z,13.95
2022-08-22T04:10:20.257Z,13.96
2022-08-22T04:13:08.248Z,14.06
2022-08-22T04:15:57.343Z,14.05
2022-08-22T04:18:43.222Z,14.09
2022-08-22T04:21:41.555Z,14.11
2022-08-22T04:24:30.225Z,14.11
2022-08-22T04:27:02.333Z,14.12
2022-08-22T04:29:36.057Z,14.19
2022-08-22T04:32:14.109Z,14.15
2022-08-22T04:34:45.926Z,14.11
2022-08-22T04:37:19.195Z,14.09
2022-08-22T04:39:50.247Z,14.20
2022-08-22T04:42:36.911Z,14.19
2022-08-22T04:45:10.175Z,14.12
2022-08-22T04:47:40.327Z,14.12
2022-08-22T04:50:15.183Z,14.10
2022-08-22T04:52:57.627Z,14.10
2022-08-22T04:55:35.414Z,14.13
2022-08-22T04:58:11.978Z,14.26
2022-08-22T05:00:48.771Z,14.25
2022-08-22T05:03:18.596Z,14.26
2022-08-22T05:05:48.448Z,14.26
2022-08-22T05:08:22.310Z,14.28
2022-08-22T05:10:51.351Z,14.25
2022-08-22T05:13:24.313Z,14.26
2022-08-22T05:15:55.466Z,14.29
2022-08-22T05:18:29.655Z,14.24
2022-08-22T05:21:01.805Z,14.27
2022-08-22T05:23:34.972Z,14.28
2022-08-22T05:26:06.043Z,14.30
2022-08-22T05:28:35.643Z,14.33
2022-08-22T05:31:05.871Z,14.28
2022-08-22T05:33:37.489Z,14.38
2022-08-22T05:36:09.930Z,14.41
2022-08-22T05:38:44.032Z,14.49
2022-08-22T05:41:17.199Z,14.53
2022-08-22T05:43:45.279Z,14.55
2022-08-22T05:46:20.395Z,14.62
2022-08-22T05:48:58.002Z,14.67
2022-08-22T05:51:34.590Z,14.67
2022-08-22T05:54:11.895Z,14.73
2022-08-22T05:56:43.973Z,14.72
2022-08-22T05:59:23.156Z,14.76
2022-08-22T06:02:00.714Z,14.80
2022-08-22T06:04:34.143Z,14.88
2022-08-22T06:07:04.867Z,14.97
2022-08-22T06:09:42.543Z,15.01
2022-08-22T06:12:21.887Z,15.10
2022-08-22T06:14:57.379Z,15.11
2022-08-22T06:17:29.199Z,15.18
2022-08-22T06:19:56.200Z,15.21
2022-08-22T06:22:25.916Z,15.26
2022-08-22T06:25:02.081Z,15.33
2022-08-22T06:27:31.201Z,15.37
2022-08-22T06:30:00.643Z,15.43
2022-08-22T06:32:58.542Z,15.57
2022-08-22T06:35:24.618Z,15.72
2022-08-22T06:37:55.696Z,15.87
2022-08-22T06:40:25.769Z,16.10
2022-08-22T06:42:53.893Z,16.29
2022-08-22T06:45:30.612Z,16.56
2022-08-22T06:48:12.053Z,16.77
2022-08-22T06:50:42.361Z,17.24
2022-08-22T06:53:15.149Z,17.49
2022-08-22T06:55:47.696Z,17.79
2022-08-22T06:58:18.180Z,18.07
2022-08-22T07:00:53.545Z,18.16
2022-08-22T07:03:39.469Z,18.23
2022-08-22T07:06:06.860Z,18.37
2022-08-22T07:08:38.981Z,18.55
2022-08-22T07:11:13.876Z,18.57
2022-08-22T07:13:48.507Z,18.60
2022-08-22T07:16:15.441Z,18.73
2022-08-22T07:18:49.166Z,18.84
2022-08-22T07:21:27.819Z,18.95
2022-08-22T07:23:56.183Z,19.00
2022-08-22T07:26:32.156Z,19.11
2022-08-22T07:29:06.764Z,19.12
2022-08-22T07:31:43.253Z,19.23
2022-08-22T07:34:35.874Z,19.41
2022-08-22T07:37:07.715Z,19.48
2022-08-22T07:39:39.313Z,19.63
2022-08-22T07:42:14.696Z,19.67
2022-08-22T07:44:56.531Z,19.75
2022-08-22T07:47:28.755Z,19.88
2022-08-22T07:49:58.952Z,19.91
2022-08-22T07:52:32.220Z,19.97
2022-08-22T07:55:10.303Z,19.94
2022-08-22T07:57:43.459Z,19.96
2022-08-22T08:00:14.560Z,20.23
2022-08-22T08:02:46.551Z,20.15
2022-08-22T08:05:14.724Z,20.52
2022-08-22T08:07:44.523Z,21.00
2022-08-22T08:10:16.335Z,21.63
2022-08-22T08:12:54.130Z,21.88
2022-08-22T08:15:31.951Z,22.26
2022-08-22T08:18:03.848Z,21.98
2022-08-22T08:20:32.220Z,21.75
2022-08-22T08:22:59.667Z,22.02
2022-08-22T08:25:48.635Z,22.30
2022-08-22T08:28:34.543Z,23.05
2022-08-22T08:31:07.672Z,23.64
2022-08-22T08:33:39.844Z,23.90
2022-08-22T08:36:20.897Z,23.20
2022-08-22T08:38:55.812Z,23.68
2022-08-22T08:41:56.764Z,23.84
2022-08-22T08:44:45.967Z,23.14
2022-08-22T08:47:32.929Z,23.22
2022-08-22T08:50:14.781Z,22.45
2022-08-22T08:53:09.474Z,22.69
2022-08-22T08:55:47.631Z,22.42
2022-08-22T08:58:39.687Z,22.66
2022-08-22T09:01:20.729Z,22.47
2022-08-22T09:04:30.630Z,22.51
2022-08-22T09:07:39.060Z,22.72
2022-08-22T09:10:20.066Z,22.71
2022-08-22T09:13:18.591Z,22.34
2022-08-22T09:16:07.224Z,21.94
2022-08-22T09:19:06.809Z,21.61
2022-08-22T09:22:14.512Z,21.55
2022-08-22T09:24:52.698Z,22.00
2022-08-22T09:27:32.541Z,22.48
2022-08-22T09:30:06.183Z,22.17
2022-08-22T09:32:44.541Z,22.97
2022-08-22T09:35:22.433Z,24.15
2022-08-22T09:38:04.171Z,24.36
2022-08-22T09:40:38.272Z,24.66
2022-08-22T09:43:08.990Z,24.69
2022-08-22T09:45:45.726Z,25.00
2022-08-22T09:48:36.282Z,24.45
2022-08-22T09:51:31.462Z,25.15
2022-08-22T09:54:18.654Z,24.98
2022-08-22T09:56:56.602Z,25.88
2022-08-22T09:59:38.857Z,25.72
2022-08-22T10:02:23.361Z,26.25
2022-08-22T10:04:59.216Z,25.94
2022-08-22T10:07:57.012Z,25.86
2022-08-22T10:10:35.779Z,25.60
2022-08-22T10:13:12.421Z,24.62
2022-08-22T10:15:43.023Z,23.93
2022-08-22T10:18:26.134Z,22.83
2022-08-22T10:21:08.500Z,21.76
2022-08-22T10:23:41.903Z,21.83
2022-08-22T10:26:29.313Z,22.20
2022-08-22T10:29:06.802Z,22.18
2022-08-22T10:31:51.067Z,23.66
2022-08-22T10:34:30.854Z,23.58
2022-08-22T10:37:07.746Z,23.31
2022-08-22T10:39:46.740Z,23.34
2022-08-22T10:42:28.219Z,24.46
2022-08-22T10:45:14.121Z,23.24
2022-08-22T10:48:04.171Z,23.11
2022-08-22T10:50:40.332Z,25.29
2022-08-22T10:53:30.257Z,24.90
2022-08-22T10:56:08.488Z,24.04
2022-08-22T10:58:40.956Z,23.60
2022-08-22T11:01:37.553Z,23.10
2022-08-22T11:04:12.369Z,24.48
2022-08-22T11:06:45.857Z,24.29
2022-08-22T11:09:25.609Z,25.70
2022-08-22T11:12:02.957Z,25.11
2022-08-22T11:14:58.387Z,24.19
2022-08-22T11:17:40.679Z,25.35
2022-08-22T11:20:19.800Z,25.69
2022-08-22T11:23:07.124Z,24.44
2022-08-22T11:25:53.751Z,24.94
2022-08-22T11:29:11.290Z,24.01
2022-08-22T11:31:51.657Z,23.33
2022-08-22T11:34:44.832Z,22.84
2022-08-22T11:37:23.797Z,22.53
2022-08-22T11:40:06.231Z,22.04
2022-08-22T11:42:47.375Z,22.55
2022-08-22T11:45:21.453Z,22.48
2022-08-22T11:47:56.775Z,24.21
2022-08-22T11:50:36.285Z,23.36
2022-08-22T11:53:19.076Z,23.11
2022-08-22T11:55:55.136Z,22.75
2022-08-22T11:58:38.515Z,22.88
2022-08-22T12:01:17.520Z,22.83
2022-08-22T12:04:00.705Z,25.17
2022-08-22T12:06:56.316Z,26.65
2022-08-22T12:09:41.589Z,24.35
2022-08-22T12:12:20.688Z,22.94
2022-08-22T12:14:57.726Z,22.76
2022-08-22T12:17:59.885Z,24.16
2022-08-22T12:21:09.944Z,22.95
2022-08-22T12:24:19.308Z,22.42
2022-08-22T12:27:03.211Z,23.78
2022-08-22T12:29:44.893Z,25.34
2022-08-22T12:32:51.507Z,24.19
2022-08-22T12:35:35.124Z,23.58
2022-08-22T12:38:28.402Z,23.88
2022-08-22T12:41:28.242Z,25.53
2022-08-22T12:44:17.034Z,26.27
2022-08-22T12:46:56.725Z,26.31
2022-08-22T12:49:38.730Z,25.62
2022-08-22T12:52:25.059Z,26.37
2022-08-22T12:55:10.871Z,26.04
2022-08-22T12:57:50.549Z,25.79
2022-08-22T13:00:30.727Z,25.53
2022-08-22T13:03:02.465Z,24.94
2022-08-22T13:05:32.445Z,25.57
2022-08-22T13:08:13.495Z,25.66
2022-08-22T13:10:46.615Z,25.21
2022-08-22T13:13:29.491Z,24.32
2022-08-22T13:16:07.191Z,24.13
2022-08-22T13:18:44.766Z,24.32
2022-08-22T13:21:17.616Z,24.34
2022-08-22T13:23:53.394Z,23.73
2022-08-22T13:26:33.095Z,23.73
2022-08-22T13:31:58.427Z,24.12
2022-08-22T13:34:39.950Z,24.00
2022-08-22T13:37:15.056Z,24.86
2022-08-22T13:39:45.927Z,25.26
2022-08-22T13:42:27.773Z,25.45
2022-08-22T13:44:59.952Z,25.61
2022-08-22T13:47:31.711Z,25.38
2022-08-22T13:50:07.358Z,25.46
2022-08-22T13:52:43.061Z,24.44
2022-08-22T13:55:21.026Z,24.54
2022-08-22T13:57:52.915Z,24.15
2022-08-22T14:01:25.501Z,23.92
2022-08-22T14:03:59.527Z,24.48
2022-08-22T14:06:38.290Z,24.91
2022-08-22T14:09:29.365Z,24.83
2022-08-22T14:12:12.151Z,24.61
2022-08-22T14:14:42.869Z,24.18
2022-08-22T14:17:15.622Z,24.33
2022-08-22T14:19:53.150Z,24.56
2022-08-22T14:22:31.763Z,24.78
2022-08-22T14:25:07.368Z,24.48
2022-08-22T14:27:39.723Z,24.39
2022-08-22T14:30:14.686Z,24.88
2022-08-22T14:32:45.895Z,24.45
2022-08-22T14:35:25.510Z,24.63
2022-08-22T14:38:18.676Z,24.38
2022-08-22T14:40:52.830Z,24.48
2022-08-22T14:43:24.780Z,24.31
2022-08-22T14:45:57.308Z,24.40
2022-08-22T14:48:39.318Z,24.21
2022-08-22T14:51:17.400Z,24.59
2022-08-22T14:53:44.609Z,24.80
2022-08-22T14:56:18.032Z,24.72
2022-08-22T14:58:49.422Z,24.12
2022-08-22T15:01:21.569Z,23.72
2022-08-22T15:03:53.947Z,23.57
2022-08-22T15:06:31.971Z,23.55
2022-08-22T15:09:00.523Z,23.46
2022-08-22T15:11:37.314Z,23.63
2022-08-22T15:14:16.234Z,23.86
2022-08-22T15:16:51.729Z,24.46
2022-08-22T15:19:23.936Z,24.38
2022-08-22T15:21:51.216Z,24.58
2022-08-22T15:24:19.156Z,24.57
2022-08-22T15:26:53.457Z,24.56
2022-08-22T15:29:26.424Z,24.32
2022-08-22T15:31:57.489Z,23.81
2022-08-22T15:34:33.928Z,23.65
2022-08-22T15:37:26.350Z,23.55
2022-08-22T15:40:08.358Z,23.51
2022-08-22T15:42:43.622Z,23.32
2022-08-22T15:45:21.142Z,23.13
2022-08-22T15:47:53.145Z,23.37
2022-08-22T15:50:34.902Z,23.21
2022-08-22T15:53:13.959Z,23.01
2022-08-22T15:56:20.806Z,22.98
2022-08-22T15:59:10.200Z,22.85
2022-08-22T16:01:44.101Z,22.74
2022-08-22T16:04:30.100Z,22.84
2022-08-22T16:07:01.323Z,22.79
2022-08-22T16:09:36.888Z,22.79
2022-08-22T16:12:08.340Z,22.74
2022-08-22T16:14:50.010Z,22.59
2022-08-22T16:17:43.468Z,22.54
2022-08-22T16:20:47.728Z,22.43
2022-08-22T16:23:14.406Z,22.43
2022-08-22T16:26:11.117Z,22.39
2022-08-22T16:28:58.292Z,22.29
2022-08-22T16:31:31.385Z,22.49
2022-08-22T16:34:23.409Z,22.58
2022-08-22T16:36:55.614Z,22.46
2022-08-22T16:39:36.409Z,22.33
2022-08-22T16:42:23.847Z,22.23
2022-08-22T16:44:55.283Z,22.12
2022-08-22T16:47:41.413Z,22.15
2022-08-22T16:50:27.228Z,22.17
2022-08-22T16:52:58.124Z,22.13
2022-08-22T16:55:55.427Z,22.02
2022-08-22T16:58:59.060Z,22.00
2022-08-22T17:01:52.565Z,21.86
2022-08-22T17:04:31.985Z,21.86
2022-08-22T17:07:13.769Z,21.87
2022-08-22T17:09:58.767Z,21.74
2022-08-22T17:12:40.557Z,21.75
2022-08-22T17:15:19.629Z,21.79
2022-08-22T17:18:11.558Z,21.57
2022-08-22T17:20:44.661Z,21.53
2022-08-22T17:23:22.202Z,21.48
2022-08-22T17:25:59.160Z,21.38
2022-08-22T17:28:35.327Z,21.36
2022-08-22T17:31:16.679Z,21.35
2022-08-22T17:34:02.503Z,21.29
2022-08-22T17:36:46.123Z,21.26
2022-08-22T17:39:29.025Z,21.20
2022-08-22T17:42:16.530Z,21.12
2022-08-22T17:44:59.052Z,21.07
2022-08-22T17:47:31.820Z,20.98
2022-08-22T17:50:05.684Z,20.91
2022-08-22T17:52:41.320Z,20.94
2022-08-22T17:55:16.354Z,20.87
2022-08-22T17:57:47.724Z,20.77
2022-08-22T18:00:18.334Z,20.69
2022-08-22T18:02:51.171Z,20.59
2022-08-22T18:05:20.409Z,20.49
2022-08-22T18:07:57.874Z,20.39
2022-08-22T18:10:42.060Z,20.26
2022-08-22T18:13:13.279Z,20.12
2022-08-22T18:15:46.372Z,20.05
2022-08-22T18:18:25.828Z,19.96
2022-08-22T18:21:02.708Z,19.90
2022-08-22T18:23:40.097Z,19.85
2022-08-22T18:26:27.105Z,19.73
2022-08-22T18:28:59.528Z,19.66
2022-08-22T18:31:38.624Z,19.63
2022-08-22T18:34:15.258Z,19.54
2022-08-22T18:36:51.714Z,19.42
2022-08-22T18:39:29.128Z,19.33
2022-08-22T18:42:03.842Z,19.27
2022-08-22T18:44:33.166Z,19.25
2022-08-22T18:47:10.388Z,19.21
2022-08-22T18:49:48.422Z,19.20
2022-08-22T18:52:20.638Z,19.12
2022-08-22T18:55:06.646Z,19.07
2022-08-22T18:57:55.285Z,19.00
2022-08-22T19:00:39.922Z,18.94
2022-08-22T19:03:27.827Z,18.91
2022-08-22T19:06:23.429Z,18.97
2022-08-22T19:09:04.571Z,19.00
2022-08-22T19:11:46.165Z,18.95
2022-08-22T19:14:26.940Z,18.90
2022-08-22T19:17:32.062Z,18.83
2022-08-22T19:20:22.482Z,18.89
2022-08-22T19:22:51.266Z,18.83
2022-08-22T19:25:26.217Z,18.88
2022-08-22T19:28:25.246Z,18.80
2022-08-22T19:31:16.498Z,18.69
2022-08-22T19:33:48.572Z,18.61
2022-08-22T19:36:31.006Z,18.52
2022-08-22T19:39:04.424Z,18.54
2022-08-22T19:41:43.644Z,18.53
2022-08-22T19:44:31.366Z,18.52
2022-08-22T19:47:05.387Z,18.48
2022-08-22T19:49:37.216Z,18.45
2022-08-22T19:52:13.589Z,18.46
2022-08-22T19:54:51.666Z,18.53
2022-08-22T19:57:28.018Z,18.48
2022-08-22T20:00:06.083Z,18.51
2022-08-22T20:02:51.150Z,18.51
2022-08-22T20:05:45.387Z,18.41
2022-08-22T20:08:36.039Z,18.51
2022-08-22T20:11:18.638Z,18.66
2022-08-22T20:13:45.625Z,18.67
2022-08-22T20:16:18.320Z,18.68
2022-08-22T20:19:09.648Z,18.69
2022-08-22T20:21:40.562Z,18.63
2022-08-22T20:24:11.855Z,18.65
2022-08-22T20:26:52.091Z,18.80
2022-08-22T20:29:30.759Z,18.80
2022-08-22T20:31:59.599Z,18.82
2022-08-22T20:34:29.782Z,18.75
2022-08-22T20:37:22.661Z,18.73
2022-08-22T20:39:58.532Z,18.68
2022-08-22T20:42:28.504Z,18.76
2022-08-22T20:44:56.246Z,18.75
2022-08-22T20:47:36.232Z,18.82
2022-08-22T20:50:12.226Z,18.77
2022-08-22T20:52:51.916Z,18.77
2022-08-22T20:55:27.238Z,18.90
2022-08-22T20:58:02.693Z,19.17
2022-08-22T21:00:33.575Z,19.13
2022-08-22T21:03:07.649Z,19.08
2022-08-22T21:05:38.356Z,19.13
2022-08-22T21:08:07.942Z,19.12
2022-08-22T21:10:56.126Z,19.14
2022-08-22T21:13:25.116Z,19.13
2022-08-22T21:15:54.661Z,19.10
2022-08-22T21:18:30.352Z,19.26
2022-08-22T21:21:16.966Z,19.35
2022-08-22T21:23:46.930Z,19.41
2022-08-22T21:26:22.469Z,19.27
2022-08-22T21:28:57.362Z,19.14
2022-08-22T21:31:27.351Z,19.13
2022-08-22T21:33:57.003Z,19.12
2022-08-22T21:36:27.572Z,19.00
2022-08-22T21:38:57.735Z,18.95
2022-08-22T21:41:27.240Z,18.82
2022-08-22T21:43:54.616Z,18.73
2022-08-22T21:46:27.062Z,18.72
2022-08-22T21:49:00.938Z,18.73
2022-08-22T21:51:32.126Z,18.70
2022-08-22T21:54:32.847Z,18.65
2022-08-22T21:57:15.738Z,18.66
2022-08-22T21:59:51.401Z,18.66
2022-08-22T22:02:31.355Z,18.49
2022-08-22T22:05:08.289Z,18.49
2022-08-22T22:07:36.760Z,18.58
2022-08-22T22:10:05.328Z,18.63
2022-08-22T22:12:32.058Z,18.69
2022-08-22T22:14:58.908Z,18.67
2022-08-22T22:17:25.996Z,18.64
2022-08-22T22:19:52.782Z,18.75
2022-08-22T22:22:21.920Z,18.87
2022-08-22T22:24:48.827Z,19.01
2022-08-22T22:27:17.200Z,19.01
2022-08-22T22:29:44.355Z,19.00
2022-08-22T22:32:11.123Z,19.04
2022-08-22T22:34:39.205Z,18.78
2022-08-22T22:37:06.860Z,19.06
2022-08-22T22:39:36.798Z,18.87
2022-08-22T22:42:04.756Z,18.91
2022-08-22T22:44:31.588Z,18.97
2022-08-22T22:46:58.995Z,19.10
2022-08-22T22:49:25.924Z,19.08
2022-08-22T22:51:52.683Z,19.12
2022-08-22T22:54:19.702Z,19.03
2022-08-22T22:56:55.542Z,18.95
2022-08-22T22:59:25.496Z,18.78
2022-08-22T23:02:05.145Z,18.61
2022-08-22T23:04:33.447Z,18.47
2022-08-22T23:07:00.282Z,18.33
2022-08-22T23:09:28.281Z,18.23
2022-08-22T23:12:08.411Z,18.19
2022-08-22T23:14:35.967Z,18.22
2022-08-22T23:17:04.588Z,18.23
2022-08-22T23:19:31.611Z,18.39
2022-08-22T23:22:00.110Z,18.50
2022-08-22T23:24:29.290Z,18.55
2022-08-22T23:26:56.395Z,18.53
2022-08-22T23:29:24.948Z,18.45
2022-08-22T23:31:54.304Z,18.38
2022-08-22T23:34:24.980Z,18.30
2022-08-22T23:36:53.917Z,18.34
2022-08-22T23:39:22.134Z,18.43
2022-08-22T23:41:49.748Z,18.36
2022-08-22T23:44:20.303Z,18.35
2022-08-22T23:46:49.011Z,18.29
2022-08-22T23:49:16.459Z,18.30
2022-08-22T23:51:44.436Z,18.30
2022-08-22T23:54:12.042Z,18.23
2022-08-22T23:56:40.703Z,18.24
2022-08-22T23:59:10.483Z,18.30
